createdAt,value
2022-09-23T00:00:59.142Z,101124.06
2022-09-23T00:03:28.391Z,101086.47
2022-09-23T00:05:59.948Z,101119.84
2022-09-23T00:08:26.539Z,101119.41
2022-09-23T00:10:53.315Z,101089.56
2022-09-23T00:13:19.752Z,101083.72
2022-09-23T00:15:46.735Z,101061.34
2022-09-23T00:18:13.336Z,101118.53
2022-09-23T00:20:40.422Z,101112.06
2022-09-23T00:23:07.333Z,101114.16
2022-09-23T00:25:33.944Z,101107.88
2022-09-23T00:28:00.704Z,101096.72
2022-09-23T00:30:27.233Z,101066.84
2022-09-23T00:32:53.876Z,101072.72
2022-09-23T00:35:20.353Z,101099.28
2022-09-23T00:37:46.879Z,101069.19
2022-09-23T00:40:13.747Z,101100.50
2022-09-23T00:42:48.651Z,101103.63
2022-09-23T00:45:15.861Z,101085.00
2022-09-23T00:47:52.810Z,101100.13
2022-09-23T00:50:37.071Z,101093.47
2022-09-23T00:53:06.924Z,101078.53
2022-09-23T00:55:46.085Z,101088.91
2022-09-23T00:58:15.574Z,101035.47
2022-09-23T01:00:42.410Z,101088.63
2022-09-23T01:03:09.496Z,101046.94
2022-09-23T01:05:39.951Z,101002.19
2022-09-23T01:08:07.486Z,101085.41
2022-09-23T01:10:58.914Z,101067.31
2022-09-23T01:13:39.875Z,101046.38
2022-09-23T01:16:41.536Z,101070.78
2022-09-23T01:19:24.612Z,101073.25
2022-09-23T01:22:23.510Z,101061.22
2022-09-23T01:25:27.313Z,101055.41
2022-09-23T01:28:03.889Z,101028.56
2022-09-23T01:30:55.267Z,101055.97
2022-09-23T01:33:29.008Z,101047.97
2022-09-23T01:36:14.861Z,100991.28
2022-09-23T01:39:00.243Z,101054.56
2022-09-23T01:41:42.659Z,101055.81
2022-09-23T01:44:20.224Z,101053.13
2022-09-23T01:46:52.033Z,101031.34
2022-09-23T01:49:29.341Z,101055.91
2022-09-23T01:52:30.363Z,101049.88
2022-09-23T01:55:20.628Z,101051.09
2022-09-23T01:57:52.862Z,101018.91
2022-09-23T02:00:22.331Z,101008.31
2022-09-23T02:02:53.296Z,101026.97
2022-09-23T02:05:33.557Z,101040.75
2022-09-23T02:08:04.764Z,101050.38
2022-09-23T02:10:37.420Z,100963.34
2022-09-23T02:13:09.002Z,101046.00
2022-09-23T02:15:40.325Z,101040.53
2022-09-23T02:18:16.006Z,101012.28
2022-09-23T02:20:43.634Z,101036.63
2022-09-23T02:23:40.756Z,101042.00
2022-09-23T02:26:39.765Z,101032.06
2022-09-23T02:29:12.157Z,101037.06
2022-09-23T02:31:55.965Z,101034.25
2022-09-23T02:34:41.431Z,101009.22
2022-09-23T02:37:15.458Z,100907.78
2022-09-23T02:39:54.479Z,101024.44
2022-09-23T02:42:25.331Z,101015.53
2022-09-23T02:44:51.794Z,101011.63
2022-09-23T02:47:20.612Z,100983.81
2022-09-23T02:49:47.249Z,101007.28
2022-09-23T02:52:13.804Z,101019.31
2022-09-23T02:54:40.636Z,101013.38
2022-09-23T02:57:08.034Z,100976.16
2022-09-23T02:59:35.486Z,101009.94
2022-09-23T03:02:08.118Z,101011.78
2022-09-23T03:04:47.233Z,101007.69
2022-09-23T03:07:18.366Z,100958.22
2022-09-23T03:10:09.579Z,100962.31
2022-09-23T03:13:15.482Z,101002.75
2022-09-23T03:16:00.601Z,100873.44
2022-09-23T03:18:40.382Z,100978.22
2022-09-23T03:21:09.773Z,100928.28
2022-09-23T03:23:38.891Z,100979.56
2022-09-23T03:26:13.238Z,100954.34
2022-09-23T03:28:41.945Z,100982.41
2022-09-23T03:31:08.544Z,100930.56
2022-09-23T03:33:36.850Z,100926.63
2022-09-23T03:36:27.656Z,100943.00
2022-09-23T03:39:03.801Z,100969.75
2022-09-23T03:41:35.076Z,100967.94
2022-09-23T03:44:02.258Z,100973.03
2022-09-23T03:46:30.174Z,100922.91
2022-09-23T03:49:00.358Z,100902.91
2022-09-23T03:51:26.866Z,100889.31
2022-09-23T03:53:53.351Z,100908.03
2022-09-23T03:56:19.896Z,100968.34
2022-09-23T03:58:46.661Z,100898.25
2022-09-23T04:01:14.773Z,100921.63
2022-09-23T04:03:41.772Z,100932.78
2022-09-23T04:06:08.407Z,100955.41
2022-09-23T04:08:35.010Z,100926.63
2022-09-23T04:11:02.476Z,100958.38
2022-09-23T04:13:29.407Z,100955.47
2022-09-23T04:15:55.948Z,100952.53
2022-09-23T04:18:22.514Z,100885.25
2022-09-23T04:20:49.367Z,100955.41
2022-09-23T04:23:16.050Z,100942.44
2022-09-23T04:25:49.320Z,100949.34
2022-09-23T04:28:16.067Z,100921.25
2022-09-23T04:30:43.747Z,100893.13
2022-09-23T04:33:11.152Z,100939.56
2022-09-23T04:35:40.347Z,100949.13
2022-09-23T04:38:07.288Z,100907.44
2022-09-23T04:40:34.249Z,100925.50
2022-09-23T04:43:00.879Z,100920.72
2022-09-23T04:45:27.724Z,100951.13
2022-09-23T04:47:54.546Z,100941.00
2022-09-23T04:50:21.085Z,100911.63
2022-09-23T04:52:47.568Z,100853.16
2022-09-23T04:55:14.031Z,100945.09
2022-09-23T04:57:40.473Z,100909.13
2022-09-23T05:00:07.931Z,100909.31
2022-09-23T05:02:35.625Z,100877.31
2022-09-23T05:05:02.426Z,100875.38
2022-09-23T05:07:28.993Z,100891.66
2022-09-23T05:09:55.565Z,100887.22
2022-09-23T05:12:22.045Z,100828.06
2022-09-23T05:14:48.486Z,100902.06
2022-09-23T05:17:15.518Z,100885.88
2022-09-23T05:19:42.462Z,100849.78
2022-09-23T05:22:08.932Z,100906.88
2022-09-23T05:24:35.470Z,100903.00
2022-09-23T05:27:02.161Z,100898.44
2022-09-23T05:29:29.047Z,100865.44
2022-09-23T05:31:55.617Z,100885.34
2022-09-23T05:34:23.205Z,100890.00
2022-09-23T05:36:50.366Z,100859.31
2022-09-23T05:39:16.870Z,100888.28
2022-09-23T05:41:43.685Z,100808.81
2022-09-23T05:44:10.186Z,100854.53
2022-09-23T05:46:36.865Z,100904.75
2022-09-23T05:49:05.351Z,100922.38
2022-09-23T05:51:33.433Z,100930.09
2022-09-23T05:54:02.733Z,100928.88
2022-09-23T05:56:30.354Z,100924.19
2022-09-23T05:58:58.727Z,100890.94
2022-09-23T06:01:27.997Z,100939.53
2022-09-23T06:03:56.434Z,100934.81
2022-09-23T06:06:33.163Z,100937.75
2022-09-23T06:09:00.604Z,100923.47
2022-09-23T06:11:29.937Z,100921.78
2022-09-23T06:14:04.151Z,100907.63
2022-09-23T06:16:35.409Z,100933.94
2022-09-23T06:19:06.167Z,100939.22
2022-09-23T06:21:34.977Z,100926.00
2022-09-23T06:24:02.713Z,100902.25
2022-09-23T06:26:33.870Z,100940.69
2022-09-23T06:29:02.756Z,100938.81
2022-09-23T06:31:29.808Z,100887.97
2022-09-23T06:34:07.854Z,100930.56
2022-09-23T06:36:43.094Z,100929.78
2022-09-23T06:39:11.623Z,100912.19
2022-09-23T06:41:39.114Z,100929.88
2022-09-23T06:44:05.786Z,100922.47
2022-09-23T06:46:32.365Z,100884.50
2022-09-23T06:48:59.271Z,100904.78
2022-09-23T06:51:25.900Z,100880.75
2022-09-23T06:53:52.547Z,100926.34
2022-09-23T06:56:20.989Z,100899.97
2022-09-23T06:58:47.754Z,100939.13
2022-09-23T07:01:16.245Z,100931.97
2022-09-23T07:03:43.286Z,100883.75
2022-09-23T07:06:09.917Z,100889.09
2022-09-23T07:08:36.516Z,100922.97
2022-09-23T07:11:05.492Z,100922.25
2022-09-23T07:13:33.436Z,100893.94
2022-09-23T07:16:01.892Z,100925.38
2022-09-23T07:18:36.755Z,100905.16
2022-09-23T07:21:14.971Z,100928.19
2022-09-23T07:23:42.761Z,100926.47
2022-09-23T07:26:09.439Z,100918.84
2022-09-23T07:28:37.016Z,100886.16
2022-09-23T07:31:06.572Z,100887.63
2022-09-23T07:33:35.042Z,100924.66
2022-09-23T07:36:07.171Z,100928.03
2022-09-23T07:38:33.913Z,100912.53
2022-09-23T07:41:05.761Z,100904.56
2022-09-23T07:43:32.773Z,100931.97
2022-09-23T07:46:03.101Z,100927.28
2022-09-23T07:48:34.084Z,100931.94
2022-09-23T07:51:07.707Z,100928.63
2022-09-23T07:53:34.163Z,100919.97
2022-09-23T07:56:00.795Z,100931.38
2022-09-23T07:58:27.443Z,100892.53
2022-09-23T08:00:54.113Z,100930.09
2022-09-23T08:03:21.055Z,100922.22
2022-09-23T08:05:47.697Z,100926.94
2022-09-23T08:08:15.162Z,100924.81
2022-09-23T08:10:42.693Z,100890.03
2022-09-23T08:13:09.785Z,100938.09
2022-09-23T08:15:36.370Z,100918.75
2022-09-23T08:18:03.013Z,100901.66
2022-09-23T08:20:47.140Z,100882.34
2022-09-23T08:23:16.090Z,100921.53
2022-09-23T08:25:47.241Z,100934.56
2022-09-23T08:28:16.672Z,100930.38
2022-09-23T08:30:44.361Z,100886.28
2022-09-23T08:33:12.173Z,100894.91
2022-09-23T08:35:38.903Z,100926.91
2022-09-23T08:38:06.353Z,100920.81
2022-09-23T08:40:35.466Z,100913.28
2022-09-23T08:43:02.002Z,100929.47
2022-09-23T08:45:29.084Z,100925.19
2022-09-23T08:48:00.915Z,100921.25
2022-09-23T08:50:39.383Z,100930.31
2022-09-23T08:53:11.740Z,100913.00
2022-09-23T08:55:42.512Z,100921.19
2022-09-23T08:58:39.658Z,100920.06
2022-09-23T09:01:44.399Z,100914.22
2022-09-23T09:04:29.734Z,100921.84
2022-09-23T09:07:12.300Z,100917.00
2022-09-23T09:09:50.371Z,100915.84
2022-09-23T09:13:00.216Z,100915.19
2022-09-23T09:15:27.640Z,100914.94
2022-09-23T09:18:07.838Z,100908.09
2022-09-23T09:20:35.156Z,100908.34
2022-09-23T09:23:09.860Z,100893.63
2022-09-23T09:25:50.084Z,100864.91
2022-09-23T09:28:35.819Z,100906.63
2022-09-23T09:31:26.964Z,100902.44
2022-09-23T09:34:17.059Z,100910.66
2022-09-23T09:36:49.515Z,100878.53
2022-09-23T09:39:16.317Z,100898.59
2022-09-23T09:42:00.160Z,100897.31
2022-09-23T09:44:40.720Z,100903.25
2022-09-23T09:47:34.565Z,100900.75
2022-09-23T09:50:08.498Z,100904.06
2022-09-23T09:52:38.995Z,100876.38
2022-09-23T09:55:14.480Z,100900.63
2022-09-23T09:57:56.148Z,100890.59
2022-09-23T10:00:23.206Z,100897.13
2022-09-23T10:02:56.794Z,100887.97
2022-09-23T10:05:56.700Z,100859.91
2022-09-23T10:08:23.226Z,100884.78
2022-09-23T10:10:59.112Z,100877.75
2022-09-23T10:13:27.356Z,100837.19
2022-09-23T10:15:54.979Z,100878.44
2022-09-23T10:18:50.164Z,100866.91
2022-09-23T10:21:23.102Z,100872.91
2022-09-23T10:23:57.240Z,100834.25
2022-09-23T10:26:59.310Z,100882.91
2022-09-23T10:29:32.302Z,100880.22
2022-09-23T10:32:20.341Z,100875.63
2022-09-23T10:34:57.123Z,100881.19
2022-09-23T10:37:45.434Z,100876.53
2022-09-23T10:40:58.156Z,100878.19
2022-09-23T10:43:46.472Z,100873.41
2022-09-23T10:46:39.403Z,100866.53
2022-09-23T10:49:43.773Z,100871.16
2022-09-23T10:52:16.335Z,100856.16
2022-09-23T10:55:08.277Z,100865.97
2022-09-23T10:58:17.497Z,100862.22
2022-09-23T11:01:14.807Z,100854.06
2022-09-23T11:04:09.897Z,100845.38
2022-09-23T11:06:53.873Z,100855.47
2022-09-23T11:09:42.252Z,100854.81
2022-09-23T11:12:27.619Z,100845.88
2022-09-23T11:14:57.081Z,100848.38
2022-09-23T11:17:46.878Z,100840.88
2022-09-23T11:20:52.067Z,100846.91
2022-09-23T11:23:51.613Z,100837.09
2022-09-23T11:26:34.006Z,100823.84
2022-09-23T11:29:45.728Z,100818.69
2022-09-23T11:32:14.218Z,100826.56
2022-09-23T11:34:54.949Z,100822.53
2022-09-23T11:37:25.485Z,100819.25
2022-09-23T11:40:05.414Z,100817.03
2022-09-23T11:42:36.571Z,100804.28
2022-09-23T11:45:06.872Z,100811.28
2022-09-23T11:47:43.510Z,100805.34
2022-09-23T11:50:25.733Z,100805.16
2022-09-23T11:53:02.060Z,100802.16
2022-09-23T11:55:33.040Z,100782.09
2022-09-23T11:58:09.299Z,100804.38
2022-09-23T12:00:51.123Z,100789.91
2022-09-23T12:03:42.559Z,100795.59
2022-09-23T12:06:15.727Z,100792.13
2022-09-23T12:08:42.195Z,100793.34
2022-09-23T12:11:08.906Z,100785.63
2022-09-23T12:13:49.205Z,100791.25
2022-09-23T12:16:30.809Z,100781.28
2022-09-23T12:19:06.295Z,100791.88
2022-09-23T12:21:53.059Z,100772.25
2022-09-23T12:24:32.863Z,100778.66
2022-09-23T12:27:06.028Z,100777.13
2022-09-23T12:29:33.181Z,100731.47
2022-09-23T12:31:59.767Z,100772.84
2022-09-23T12:34:29.624Z,100760.66
2022-09-23T12:37:04.243Z,100772.34
2022-09-23T12:39:32.953Z,100774.22
2022-09-23T12:42:03.748Z,100764.53
2022-09-23T12:44:39.187Z,100751.00
2022-09-23T12:47:14.964Z,100765.00
2022-09-23T12:49:42.794Z,100757.19
2022-09-23T12:52:15.348Z,100761.34
2022-09-23T12:54:43.650Z,100752.69
2022-09-23T12:57:33.151Z,100759.19
2022-09-23T13:00:11.439Z,100754.16
2022-09-23T13:02:46.971Z,100750.56
2022-09-23T13:05:37.696Z,100717.09
2022-09-23T13:08:17.048Z,100746.09
2022-09-23T13:10:55.216Z,100724.88
2022-09-23T13:13:26.453Z,100692.59
2022-09-23T13:15:54.001Z,100707.69
2022-09-23T13:18:20.503Z,100733.69
2022-09-23T13:20:54.873Z,100731.31
2022-09-23T13:23:31.257Z,100728.13
2022-09-23T13:26:00.088Z,100715.63
2022-09-23T13:28:28.309Z,100721.22
2022-09-23T13:30:55.573Z,100714.59
2022-09-23T13:33:38.889Z,100657.06
2022-09-23T13:36:12.178Z,100710.75
2022-09-23T13:38:38.980Z,100677.25
2022-09-23T13:41:11.403Z,100714.09
2022-09-23T13:43:42.561Z,100658.94
2022-09-23T13:46:13.347Z,100686.72
2022-09-23T13:48:41.248Z,100705.44
2022-09-23T13:51:10.929Z,100710.34
2022-09-23T13:53:38.183Z,100684.25
2022-09-23T13:56:04.906Z,100705.31
2022-09-23T13:58:32.597Z,100706.47
2022-09-23T14:00:59.267Z,100702.59
2022-09-23T14:03:37.119Z,100700.38
2022-09-23T14:06:14.478Z,100684.34
2022-09-23T14:08:44.154Z,100702.81
2022-09-23T14:11:18.239Z,100699.06
2022-09-23T14:13:46.095Z,100694.78
2022-09-23T14:16:17.120Z,100694.88
2022-09-23T14:18:46.856Z,100691.81
2022-09-23T14:21:33.789Z,100694.53
2022-09-23T14:24:18.848Z,100691.13
2022-09-23T14:26:51.968Z,100649.97
2022-09-23T14:29:21.025Z,100689.59
2022-09-23T14:32:00.196Z,100689.00
2022-09-23T14:35:00.853Z,100683.81
2022-09-23T14:37:54.932Z,100689.78
2022-09-23T14:40:36.286Z,100689.31
2022-09-23T14:43:17.452Z,100693.69
2022-09-23T14:45:47.365Z,100691.28
2022-09-23T14:48:17.025Z,100654.56
2022-09-23T14:50:52.078Z,100692.75
2022-09-23T14:53:18.971Z,100686.13
2022-09-23T14:55:46.636Z,100693.44
2022-09-23T14:58:17.680Z,100681.44
2022-09-23T15:00:54.228Z,100683.06
2022-09-23T15:03:24.113Z,100638.28
2022-09-23T15:05:52.833Z,100648.75
2022-09-23T15:08:24.274Z,100682.03
2022-09-23T15:10:51.232Z,100637.53
2022-09-23T15:13:23.431Z,100677.47
2022-09-23T15:15:53.356Z,100650.28
2022-09-23T15:18:41.107Z,100668.31
2022-09-23T15:21:13.397Z,100645.41
2022-09-23T15:23:43.046Z,100668.44
2022-09-23T15:26:12.135Z,100643.97
2022-09-23T15:28:38.614Z,100647.59
2022-09-23T15:31:06.100Z,100673.84
2022-09-23T15:33:32.609Z,100661.66
2022-09-23T15:35:59.078Z,100642.16
2022-09-23T15:38:27.177Z,100666.34
2022-09-23T15:40:54.304Z,100626.25
2022-09-23T15:43:24.098Z,100666.94
2022-09-23T15:45:52.234Z,100671.97
2022-09-23T15:48:31.615Z,100657.22
2022-09-23T15:51:03.973Z,100666.34
2022-09-23T15:53:31.535Z,100673.94
2022-09-23T15:55:58.666Z,100634.50
2022-09-23T15:58:26.044Z,100683.06
2022-09-23T16:00:56.844Z,100674.63
2022-09-23T16:03:28.318Z,100669.59
2022-09-23T16:06:00.609Z,100666.38
2022-09-23T16:08:28.367Z,100670.56
2022-09-23T16:10:55.692Z,100670.38
2022-09-23T16:13:22.280Z,100663.63
2022-09-23T16:15:48.827Z,100625.22
2022-09-23T16:18:15.507Z,100643.66
2022-09-23T16:20:44.583Z,100668.63
2022-09-23T16:23:38.646Z,100666.31
2022-09-23T16:26:05.429Z,100670.31
2022-09-23T16:28:32.084Z,100660.41
2022-09-23T16:30:58.606Z,100646.72
2022-09-23T16:33:25.153Z,100673.69
2022-09-23T16:35:52.482Z,100629.44
2022-09-23T16:38:18.953Z,100656.28
2022-09-23T16:40:47.321Z,100676.06
2022-09-23T16:43:16.781Z,100672.59
2022-09-23T16:45:43.375Z,100638.56
2022-09-23T16:48:11.158Z,100674.63
2022-09-23T16:50:37.591Z,100665.84
2022-09-23T16:53:04.558Z,100660.84
2022-09-23T16:55:31.272Z,100675.44
2022-09-23T16:57:58.164Z,100639.28
2022-09-23T17:00:43.305Z,100655.50
2022-09-23T17:03:30.734Z,100666.34
2022-09-23T17:05:57.934Z,100684.31
2022-09-23T17:08:24.451Z,100614.63
2022-09-23T17:10:58.506Z,100638.63
2022-09-23T17:13:26.282Z,100671.38
2022-09-23T17:15:53.400Z,100679.84
2022-09-23T17:18:20.756Z,100681.19
2022-09-23T17:20:59.236Z,100682.88
2022-09-23T17:23:28.676Z,100659.34
2022-09-23T17:25:55.232Z,100621.66
2022-09-23T17:28:21.926Z,100678.91
2022-09-23T17:30:51.730Z,100675.69
2022-09-23T17:33:19.360Z,100671.41
2022-09-23T17:35:46.110Z,100675.16
2022-09-23T17:38:12.795Z,100647.53
2022-09-23T17:40:40.503Z,100675.72
2022-09-23T17:43:07.876Z,100676.56
2022-09-23T17:45:37.496Z,100677.75
2022-09-23T17:48:04.230Z,100674.31
2022-09-23T17:50:31.285Z,100673.13
2022-09-23T17:53:00.221Z,100666.25
2022-09-23T17:55:26.714Z,100666.41
2022-09-23T17:57:53.171Z,100667.31
2022-09-23T18:00:19.963Z,100617.44
2022-09-23T18:02:50.231Z,100654.47
2022-09-23T18:05:16.994Z,100657.66
2022-09-23T18:07:43.546Z,100650.78
2022-09-23T18:10:10.161Z,100651.34
2022-09-23T18:12:36.687Z,100635.34
2022-09-23T18:15:06.159Z,100646.94
2022-09-23T18:17:32.605Z,100634.84
2022-09-23T18:19:59.479Z,100614.94
2022-09-23T18:22:25.995Z,100595.63
2022-09-23T18:24:52.422Z,100620.13
2022-09-23T18:27:18.921Z,100632.91
2022-09-23T18:29:45.455Z,100631.91
2022-09-23T18:32:14.229Z,100638.88
2022-09-23T18:34:40.931Z,100601.13
2022-09-23T18:37:15.416Z,100648.97
2022-09-23T18:39:42.821Z,100657.69
2022-09-23T18:42:09.340Z,100649.69
2022-09-23T18:44:35.987Z,100631.34
2022-09-23T18:47:02.601Z,100650.84
2022-09-23T18:49:47.807Z,100641.78
2022-09-23T18:52:15.799Z,100605.69
2022-09-23T18:54:43.118Z,100648.03
2022-09-23T18:57:09.649Z,100654.56
2022-09-23T18:59:36.332Z,100616.28
2022-09-23T19:02:03.095Z,100611.06
2022-09-23T19:04:29.793Z,100644.84
2022-09-23T19:06:56.516Z,100646.66
2022-09-23T19:09:23.830Z,100644.63
2022-09-23T19:11:52.160Z,100580.19
2022-09-23T19:14:18.987Z,100628.13
2022-09-23T19:16:45.773Z,100607.78
2022-09-23T19:19:12.218Z,100641.06
2022-09-23T19:21:38.719Z,100586.06
2022-09-23T19:24:07.502Z,100606.97
2022-09-23T19:26:39.845Z,100649.56
2022-09-23T19:29:08.556Z,100636.84
2022-09-23T19:31:40.584Z,100610.25
2022-09-23T19:34:29.487Z,100651.28
2022-09-23T19:36:59.854Z,100644.72
2022-09-23T19:39:30.576Z,100601.47
2022-09-23T19:41:58.853Z,100651.63
2022-09-23T19:44:28.541Z,100631.28
2022-09-23T19:46:57.027Z,100603.28
2022-09-23T19:49:24.730Z,100622.09
2022-09-23T19:51:51.753Z,100631.66
2022-09-23T19:54:20.569Z,100601.91
2022-09-23T19:56:48.643Z,100616.53
2022-09-23T19:59:18.737Z,100608.28
2022-09-23T20:01:45.750Z,100625.47
2022-09-23T20:04:12.438Z,100632.88
2022-09-23T20:06:39.392Z,100637.56
2022-09-23T20:09:06.176Z,100611.06
2022-09-23T20:11:33.383Z,100603.16
2022-09-23T20:14:02.121Z,100632.88
2022-09-23T20:16:32.491Z,100628.50
2022-09-23T20:19:00.160Z,100612.41
2022-09-23T20:21:28.327Z,100636.91
2022-09-23T20:23:55.341Z,100622.00
2022-09-23T20:26:40.703Z,100605.34
2022-09-23T20:29:08.806Z,100618.94
2022-09-23T20:31:35.536Z,100603.25
2022-09-23T20:34:05.747Z,100572.69
2022-09-23T20:36:34.087Z,100621.06
2022-09-23T20:39:02.725Z,100626.06
2022-09-23T20:41:31.200Z,100625.94
2022-09-23T20:44:01.279Z,100626.41
2022-09-23T20:46:28.865Z,100627.41
2022-09-23T20:48:56.747Z,100624.66
2022-09-23T20:51:24.654Z,100609.88
2022-09-23T20:53:52.886Z,100621.13
2022-09-23T20:56:23.146Z,100614.16
2022-09-23T20:58:50.852Z,100582.22
2022-09-23T21:01:18.147Z,100615.50
2022-09-23T21:03:46.723Z,100618.06
2022-09-23T21:06:15.335Z,100625.25
2022-09-23T21:08:43.094Z,100615.25
2022-09-23T21:11:12.431Z,100616.47
2022-09-23T21:13:39.263Z,100576.66
2022-09-23T21:16:16.054Z,100585.34
2022-09-23T21:18:43.406Z,100600.31
2022-09-23T21:21:10.946Z,100603.50
2022-09-23T21:23:38.426Z,100609.97
2022-09-23T21:26:04.912Z,100622.84
2022-09-23T21:28:32.479Z,100597.63
2022-09-23T21:31:05.532Z,100607.19
2022-09-23T21:33:32.986Z,100621.16
2022-09-23T21:36:03.691Z,100613.50
2022-09-23T21:38:31.379Z,100588.41
2022-09-23T21:40:59.490Z,100613.78
2022-09-23T21:43:28.033Z,100583.72
2022-09-23T21:45:59.620Z,100618.59
2022-09-23T21:48:27.832Z,100586.03
2022-09-23T21:51:02.654Z,100614.88
2022-09-23T21:53:31.140Z,100612.66
2022-09-23T21:56:20.280Z,100606.69
2022-09-23T21:58:47.462Z,100611.59
2022-09-23T22:01:15.295Z,100609.28
2022-09-23T22:03:43.375Z,100610.91
2022-09-23T22:06:14.860Z,100610.22
2022-09-23T22:08:43.113Z,100594.97
2022-09-23T22:11:33.275Z,100610.22
2022-09-23T22:14:02.127Z,100607.28
2022-09-23T22:16:30.029Z,100604.94
2022-09-23T22:18:58.427Z,100552.19
2022-09-23T22:21:26.660Z,100606.22
2022-09-23T22:23:57.921Z,100558.50
2022-09-23T22:26:24.979Z,100611.53
2022-09-23T22:29:10.615Z,100596.28
2022-09-23T22:31:56.175Z,100582.28
2022-09-23T22:34:48.625Z,100602.81
2022-09-23T22:37:17.802Z,100595.09
2022-09-23T22:39:44.935Z,100560.38
2022-09-23T22:42:13.012Z,100548.34
2022-09-23T22:44:39.531Z,100573.75
2022-09-23T22:47:06.686Z,100585.66
2022-09-23T22:49:33.393Z,100595.50
2022-09-23T22:51:59.976Z,100582.44
2022-09-23T22:54:33.793Z,100598.50
2022-09-23T22:57:04.076Z,100596.56
2022-09-23T22:59:30.738Z,100570.25
2022-09-23T23:01:59.604Z,100558.03
2022-09-23T23:04:26.994Z,100570.59
2022-09-23T23:06:53.650Z,100596.72
2022-09-23T23:09:20.142Z,100549.63
2022-09-23T23:11:47.327Z,100592.41
2022-09-23T23:14:16.174Z,100593.28
2022-09-23T23:16:44.082Z,100581.19
2022-09-23T23:19:13.354Z,100591.50
2022-09-23T23:21:46.322Z,100585.84
2022-09-23T23:24:18.801Z,100582.69
2022-09-23T23:26:45.670Z,100590.00
2022-09-23T23:29:13.695Z,100582.06
2022-09-23T23:31:40.615Z,100582.38
2022-09-23T23:34:08.383Z,100551.88
2022-09-23T23:36:34.976Z,100534.31
2022-09-23T23:39:01.418Z,100553.06
2022-09-23T23:41:28.287Z,100530.53
2022-09-23T23:43:57.043Z,100584.16
2022-09-23T23:46:28.493Z,100568.81
2022-09-23T23:48:56.050Z,100567.66
2022-09-23T23:51:23.054Z,100560.53
2022-09-23T23:53:49.586Z,100538.56
2022-09-23T23:56:19.347Z,100551.31
2022-09-23T23:58:46.158Z,100553.66
